createdAt,value
2023-04-01T00:01:52.021Z,7.04
2023-04-01T00:04:19.809Z,7.01
2023-04-01T00:06:48.888Z,6.97
2023-04-01T00:09:17.036Z,7.02
2023-04-01T00:11:46.760Z,6.97
2023-04-01T00:14:14.887Z,6.93
2023-04-01T00:16:42.409Z,6.78
2023-04-01T00:19:09.807Z,6.82
2023-04-01T00:21:38.051Z,6.70
2023-04-01T00:24:05.524Z,6.57
2023-04-01T00:26:32.873Z,6.47
2023-04-01T00:29:00.361Z,6.48
2023-04-01T00:31:28.233Z,6.36
2023-04-01T00:33:55.933Z,6.30
2023-04-01T00:36:24.309Z,6.20
2023-04-01T00:38:51.771Z,6.18
2023-04-01T00:41:22.905Z,6.07
2023-04-01T00:43:52.439Z,6.05
2023-04-01T00:46:20.520Z,5.96
2023-04-01T00:48:55.104Z,5.91
2023-04-01T00:51:27.217Z,5.86
2023-04-01T00:53:57.212Z,5.82
2023-04-01T00:56:31.731Z,5.86
2023-04-01T00:59:03.797Z,5.90
2023-04-01T01:01:33.265Z,5.95
2023-04-01T01:04:00.995Z,5.98
2023-04-01T01:06:40.170Z,6.08
2023-04-01T01:09:27.567Z,6.09
2023-04-01T01:11:58.414Z,6.10
2023-04-01T01:14:34.409Z,6.20
2023-04-01T01:17:21.584Z,6.23
2023-04-01T01:20:05.933Z,6.16
2023-04-01T01:22:58.766Z,6.13
2023-04-01T01:25:32.599Z,6.14
2023-04-01T01:28:28.452Z,6.16
2023-04-01T01:31:22.161Z,6.13
2023-04-01T01:34:19.615Z,6.08
2023-04-01T01:36:52.437Z,6.06
2023-04-01T01:39:21.475Z,6.01
2023-04-01T01:41:50.720Z,6.10
2023-04-01T01:44:20.279Z,6.15
2023-04-01T01:46:48.958Z,6.12
2023-04-01T01:49:18.214Z,6.09
2023-04-01T01:51:45.761Z,6.21
2023-04-01T01:54:18.883Z,6.17
2023-04-01T01:56:49.542Z,6.19
2023-04-01T01:59:22.280Z,6.17
2023-04-01T02:01:57.833Z,6.28
2023-04-01T02:04:27.350Z,6.29
2023-04-01T02:07:03.965Z,6.27
2023-04-01T02:09:31.688Z,6.41
2023-04-01T02:12:05.223Z,6.32
2023-04-01T02:14:57.738Z,6.35
2023-04-01T02:17:29.002Z,6.28
2023-04-01T02:20:05.779Z,6.25
2023-04-01T02:22:37.098Z,6.30
2023-04-01T02:25:09.651Z,6.33
2023-04-01T02:27:37.249Z,6.24
2023-04-01T02:30:05.388Z,6.32
2023-04-01T02:32:35.030Z,6.36
2023-04-01T02:35:07.219Z,6.34
2023-04-01T02:37:36.233Z,6.30
2023-04-01T02:40:08.494Z,6.34
2023-04-01T02:42:35.918Z,6.33
2023-04-01T02:45:04.216Z,6.39
2023-04-01T02:47:34.109Z,6.33
2023-04-01T02:50:02.320Z,6.35
2023-04-01T02:52:30.652Z,6.35
2023-04-01T02:55:01.367Z,6.25
2023-04-01T02:57:28.934Z,6.33
2023-04-01T02:59:56.468Z,6.28
2023-04-01T03:02:23.922Z,6.26
2023-04-01T03:04:51.369Z,6.19
2023-04-01T03:07:18.752Z,6.25
2023-04-01T03:09:46.343Z,6.22
2023-04-01T03:12:15.682Z,6.27
2023-04-01T03:14:50.734Z,6.34
2023-04-01T03:17:18.203Z,6.42
2023-04-01T03:19:45.852Z,6.37
2023-04-01T03:22:13.419Z,6.35
2023-04-01T03:24:41.118Z,6.29
2023-04-01T03:27:08.557Z,6.36
2023-04-01T03:29:35.952Z,6.35
2023-04-01T03:32:03.510Z,6.36
2023-04-01T03:34:30.558Z,6.45
2023-04-01T03:36:59.388Z,6.36
2023-04-01T03:39:27.725Z,6.39
2023-04-01T03:41:59.507Z,6.40
2023-04-01T03:44:27.622Z,6.46
2023-04-01T03:46:56.150Z,6.42
2023-04-01T03:49:23.790Z,6.47
2023-04-01T03:51:51.061Z,6.47
2023-04-01T03:54:21.226Z,6.51
2023-04-01T03:56:49.042Z,6.55
2023-04-01T03:59:16.870Z,6.55
2023-04-01T04:01:44.662Z,6.62
2023-04-01T04:04:14.668Z,6.70
2023-04-01T04:06:42.673Z,6.77
2023-04-01T04:09:10.265Z,6.71
2023-04-01T04:11:41.432Z,6.80
2023-04-01T04:14:08.876Z,6.82
2023-04-01T04:16:37.820Z,6.85
2023-04-01T04:19:06.374Z,6.92
2023-04-01T04:21:34.135Z,6.81
2023-04-01T04:24:02.261Z,6.74
2023-04-01T04:26:44.953Z,6.85
2023-04-01T04:29:12.828Z,6.76
2023-04-01T04:31:40.581Z,6.77
2023-04-01T04:34:08.272Z,6.83
2023-04-01T04:36:36.785Z,6.85
2023-04-01T04:39:04.619Z,7.04
2023-04-01T04:41:36.609Z,7.10
2023-04-01T04:44:06.864Z,7.16
2023-04-01T04:46:34.861Z,7.28
2023-04-01T04:49:28.843Z,7.54
2023-04-01T04:51:56.601Z,7.64
2023-04-01T04:54:27.433Z,7.80
2023-04-01T04:57:00.493Z,7.81
2023-04-01T04:59:32.035Z,7.76
2023-04-01T05:02:08.191Z,7.81
2023-04-01T05:04:37.766Z,7.89
2023-04-01T05:07:07.943Z,7.95
2023-04-01T05:09:36.178Z,7.72
2023-04-01T05:12:04.326Z,7.78
2023-04-01T05:14:48.665Z,7.77
2023-04-01T05:17:16.859Z,7.78
2023-04-01T05:19:44.323Z,7.75
2023-04-01T05:22:12.302Z,7.71
2023-04-01T05:24:39.930Z,7.69
2023-04-01T05:27:07.400Z,7.60
2023-04-01T05:29:38.465Z,7.66
2023-04-01T05:32:08.869Z,7.61
2023-04-01T05:34:36.604Z,7.65
2023-04-01T05:37:04.239Z,7.65
2023-04-01T05:39:31.672Z,7.56
2023-04-01T05:41:59.070Z,7.55
2023-04-01T05:44:26.517Z,7.55
2023-04-01T05:47:04.420Z,7.63
2023-04-01T05:49:35.554Z,7.88
2023-04-01T05:52:04.510Z,7.93
2023-04-01T05:54:36.457Z,8.01
2023-04-01T05:57:04.154Z,8.18
2023-04-01T05:59:36.019Z,8.16
2023-04-01T06:02:04.147Z,8.15
2023-04-01T06:04:39.696Z,8.24
2023-04-01T06:07:16.573Z,8.42
2023-04-01T06:09:45.511Z,8.34
2023-04-01T06:12:34.769Z,8.42
2023-04-01T06:15:24.356Z,8.63
2023-04-01T06:18:40.401Z,8.72
2023-04-01T06:21:34.876Z,9.11
2023-04-01T06:24:28.576Z,9.66
2023-04-01T06:27:18.392Z,9.87
2023-04-01T06:29:58.166Z,10.00
2023-04-01T06:32:50.239Z,9.93
2023-04-01T06:35:48.680Z,10.09
2023-04-01T06:38:29.745Z,9.69
2023-04-01T06:41:07.617Z,9.66
2023-04-01T06:43:53.725Z,9.51
2023-04-01T06:46:48.421Z,9.81
2023-04-01T06:49:52.683Z,10.56
2023-04-01T06:53:07.091Z,10.99
2023-04-01T06:56:25.828Z,10.96
2023-04-01T06:59:14.337Z,10.78
2023-04-01T07:01:47.320Z,10.72
2023-04-01T07:04:29.933Z,10.76
2023-04-01T07:07:01.169Z,10.96
2023-04-01T07:09:52.225Z,11.34
2023-04-01T07:12:42.423Z,11.78
2023-04-01T07:15:35.103Z,11.72
2023-04-01T07:18:17.495Z,11.59
2023-04-01T07:20:45.472Z,11.95
2023-04-01T07:23:31.152Z,12.31
2023-04-01T07:26:26.480Z,12.48
2023-04-01T07:29:17.015Z,12.45
2023-04-01T07:31:59.720Z,12.28
2023-04-01T07:34:30.090Z,12.39
2023-04-01T07:37:18.104Z,12.30
2023-04-01T07:40:10.119Z,12.00
2023-04-01T07:43:05.783Z,11.96
2023-04-01T07:45:37.649Z,12.07
2023-04-01T07:48:23.811Z,12.10
2023-04-01T07:50:57.649Z,12.04
2023-04-01T07:53:38.450Z,11.90
2023-04-01T07:56:11.580Z,11.70
2023-04-01T07:58:59.839Z,11.81
2023-04-01T08:02:02.151Z,11.74
2023-04-01T08:04:39.479Z,11.69
2023-04-01T08:07:25.633Z,11.85
2023-04-01T08:10:34.405Z,12.12
2023-04-01T08:13:40.203Z,12.61
2023-04-01T08:16:56.243Z,13.16
2023-04-01T08:19:58.068Z,13.26
2023-04-01T08:22:42.053Z,13.26
2023-04-01T08:25:28.049Z,13.34
2023-04-01T08:28:21.692Z,13.53
2023-04-01T08:31:04.203Z,14.34
2023-04-01T08:33:34.054Z,14.99
2023-04-01T08:36:29.081Z,15.46
2023-04-01T08:39:19.553Z,15.48
2023-04-01T08:42:09.765Z,15.55
2023-04-01T08:45:14.758Z,16.10
2023-04-01T08:48:12.148Z,16.27
2023-04-01T08:50:54.087Z,16.72
2023-04-01T08:53:48.714Z,16.78
2023-04-01T08:56:37.680Z,16.66
2023-04-01T08:59:11.198Z,16.19
2023-04-01T09:01:59.254Z,16.16
2023-04-01T09:05:20.033Z,16.34
2023-04-01T09:07:57.395Z,16.49
2023-04-01T09:10:38.088Z,17.16
2023-04-01T09:14:01.828Z,17.70
2023-04-01T09:16:47.298Z,17.58
2023-04-01T09:19:24.166Z,17.46
2023-04-01T09:22:04.641Z,17.88
2023-04-01T09:24:41.711Z,18.43
2023-04-01T09:27:36.040Z,19.00
2023-04-01T09:30:09.756Z,19.17
2023-04-01T09:33:14.182Z,19.26
2023-04-01T09:36:00.151Z,19.38
2023-04-01T09:38:40.833Z,19.73
2023-04-01T09:41:13.975Z,18.99
2023-04-01T09:44:24.074Z,18.91
2023-04-01T09:47:25.993Z,18.63
2023-04-01T09:50:29.511Z,18.90
2023-04-01T09:53:22.592Z,19.18
2023-04-01T09:56:28.734Z,19.64
2023-04-01T09:59:02.171Z,19.96
2023-04-01T10:02:19.049Z,19.49
2023-04-01T10:05:02.944Z,19.10
2023-04-01T10:07:45.968Z,18.83
2023-04-01T10:10:19.312Z,18.22
2023-04-01T10:13:12.081Z,17.72
2023-04-01T10:16:04.417Z,17.56
2023-04-01T10:18:41.202Z,17.02
2023-04-01T10:21:46.023Z,16.67
2023-04-01T10:24:48.947Z,16.55
2023-04-01T10:27:57.849Z,17.36
2023-04-01T10:31:21.931Z,17.14
2023-04-01T10:34:24.148Z,16.96
2023-04-01T10:37:13.833Z,16.76
2023-04-01T10:39:54.057Z,17.00
2023-04-01T10:42:29.969Z,17.08
2023-04-01T10:45:46.260Z,17.69
2023-04-01T10:48:37.942Z,17.96
2023-04-01T10:51:36.045Z,17.71
2023-04-01T10:54:30.912Z,17.47
2023-04-01T10:57:33.575Z,16.87
2023-04-01T11:01:09.235Z,16.61
2023-04-01T11:04:33.703Z,16.67
2023-04-01T11:07:19.819Z,16.65
2023-04-01T11:10:08.963Z,16.92
2023-04-01T11:13:21.778Z,17.26
2023-04-01T11:15:55.818Z,17.17
2023-04-01T11:18:41.800Z,17.36
2023-04-01T11:21:09.078Z,17.35
2023-04-01T11:23:39.853Z,16.97
2023-04-01T11:26:12.701Z,16.69
2023-04-01T11:29:25.014Z,16.43
2023-04-01T11:32:12.125Z,16.35
2023-04-01T11:35:21.474Z,16.79
2023-04-01T11:38:09.696Z,16.88
2023-04-01T11:40:58.229Z,16.68
2023-04-01T11:43:38.871Z,16.70
2023-04-01T11:46:27.895Z,16.73
2023-04-01T11:49:31.752Z,16.71
2023-04-01T11:52:21.705Z,16.75
2023-04-01T11:54:49.412Z,16.73
2023-04-01T11:57:54.204Z,17.08
2023-04-01T12:00:56.206Z,16.89
2023-04-01T12:03:38.354Z,16.81
2023-04-01T12:06:11.700Z,16.89
2023-04-01T12:08:55.811Z,16.70
2023-04-01T12:11:34.668Z,16.76
2023-04-01T12:14:16.255Z,17.14
2023-04-01T12:17:05.291Z,17.13
2023-04-01T12:19:41.788Z,17.32
2023-04-01T12:22:23.911Z,17.44
2023-04-01T12:25:17.482Z,17.38
2023-04-01T12:28:03.941Z,17.29
2023-04-01T12:30:44.394Z,16.79
2023-04-01T12:33:27.006Z,16.49
2023-04-01T12:36:09.387Z,16.22
2023-04-01T12:38:49.434Z,15.92
2023-04-01T12:41:40.478Z,16.07
2023-04-01T12:44:13.832Z,15.87
2023-04-01T12:46:47.540Z,15.87
2023-04-01T12:49:21.633Z,15.84
2023-04-01T12:52:27.657Z,15.74
2023-04-01T12:54:59.640Z,15.42
2023-04-01T12:58:13.024Z,15.42
2023-04-01T13:00:56.455Z,15.45
2023-04-01T13:03:56.573Z,15.57
2023-04-01T13:06:23.797Z,15.92
2023-04-01T13:09:27.505Z,15.70
2023-04-01T13:12:07.591Z,15.53
2023-04-01T13:15:05.625Z,15.09
2023-04-01T13:18:06.355Z,14.65
2023-04-01T13:21:01.630Z,14.23
2023-04-01T13:23:57.121Z,14.27
2023-04-01T13:26:53.468Z,14.45
2023-04-01T13:29:39.328Z,14.14
2023-04-01T13:32:43.609Z,13.44
2023-04-01T13:35:35.451Z,13.05
2023-04-01T13:38:25.612Z,13.11
2023-04-01T13:41:20.680Z,13.33
2023-04-01T13:43:57.835Z,13.60
2023-04-01T13:46:34.157Z,13.79
2023-04-01T13:49:33.111Z,13.98
2023-04-01T13:52:25.826Z,13.91
2023-04-01T13:55:11.462Z,13.81
2023-04-01T13:57:59.826Z,13.64
2023-04-01T14:00:33.369Z,13.51
2023-04-01T14:03:21.715Z,13.39
2023-04-01T14:06:13.012Z,13.26
2023-04-01T14:08:53.002Z,13.27
2023-04-01T14:11:42.405Z,13.23
2023-04-01T14:14:39.510Z,13.25
2023-04-01T14:17:14.673Z,13.33
2023-04-01T14:20:03.043Z,13.30
2023-04-01T14:22:45.309Z,13.32
2023-04-01T14:25:43.301Z,13.35
2023-04-01T14:28:24.721Z,13.44
2023-04-01T14:31:31.261Z,13.38
2023-04-01T14:34:24.044Z,13.47
2023-04-01T14:37:25.222Z,13.43
2023-04-01T14:40:29.900Z,13.38
2023-04-01T14:43:23.523Z,13.28
2023-04-01T14:46:10.463Z,13.32
2023-04-01T14:49:06.594Z,13.17
2023-04-01T14:51:40.090Z,13.23
2023-04-01T14:54:24.518Z,13.23
2023-04-01T14:57:05.641Z,13.22
2023-04-01T14:59:34.337Z,13.23
2023-04-01T15:02:05.356Z,13.22
2023-04-01T15:04:42.678Z,13.13
2023-04-01T15:07:13.459Z,13.19
2023-04-01T15:10:02.128Z,13.23
2023-04-01T15:12:46.388Z,13.10
2023-04-01T15:15:23.116Z,12.99
2023-04-01T15:17:59.793Z,12.82
2023-04-01T15:20:33.279Z,12.60
2023-04-01T15:23:41.182Z,12.46
2023-04-01T15:26:11.461Z,12.27
2023-04-01T15:29:08.870Z,12.16
2023-04-01T15:31:59.673Z,12.06
2023-04-01T15:34:33.353Z,12.13
2023-04-01T15:37:22.176Z,12.11
2023-04-01T15:40:13.346Z,12.11
2023-04-01T15:42:51.616Z,12.06
2023-04-01T15:46:00.783Z,11.96
2023-04-01T15:48:49.776Z,11.95
2023-04-01T15:51:32.481Z,11.63
2023-04-01T15:54:19.150Z,11.51
2023-04-01T15:56:55.500Z,11.40
2023-04-01T15:59:25.956Z,11.30
2023-04-01T16:02:08.443Z,11.14
2023-04-01T16:04:47.608Z,11.08
2023-04-01T16:07:32.547Z,10.93
2023-04-01T16:10:18.634Z,10.95
2023-04-01T16:13:28.468Z,10.94
2023-04-01T16:16:18.677Z,10.79
2023-04-01T16:19:11.803Z,10.74
2023-04-01T16:21:53.245Z,10.71
2023-04-01T16:24:36.028Z,10.70
2023-04-01T16:27:09.929Z,10.70
2023-04-01T16:29:50.980Z,10.75
2023-04-01T16:32:38.452Z,10.73
2023-04-01T16:35:22.360Z,10.72
2023-04-01T16:37:58.731Z,10.80
2023-04-01T16:40:43.849Z,10.77
2023-04-01T16:43:11.608Z,10.76
2023-04-01T16:45:49.836Z,10.83
2023-04-01T16:48:24.102Z,10.86
2023-04-01T16:51:16.415Z,10.92
2023-04-01T16:53:48.750Z,10.95
2023-04-01T16:56:23.333Z,10.96
2023-04-01T16:59:06.519Z,10.96
2023-04-01T17:01:49.239Z,10.96
2023-04-01T17:04:23.449Z,10.97
2023-04-01T17:07:16.813Z,10.94
2023-04-01T17:09:46.898Z,10.97
2023-04-01T17:12:36.036Z,10.93
2023-04-01T17:15:39.411Z,10.94
2023-04-01T17:18:06.413Z,10.88
2023-04-01T17:20:44.715Z,10.74
2023-04-01T17:23:15.767Z,10.69
2023-04-01T17:25:46.051Z,10.65
2023-04-01T17:28:13.475Z,10.68
2023-04-01T17:30:52.997Z,10.61
2023-04-01T17:33:32.311Z,10.56
2023-04-01T17:36:17.451Z,10.54
2023-04-01T17:38:53.215Z,10.49
2023-04-01T17:41:52.636Z,10.48
2023-04-01T17:44:34.827Z,10.47
2023-04-01T17:47:08.841Z,10.47
2023-04-01T17:50:04.430Z,10.43
2023-04-01T17:52:38.778Z,10.41
2023-04-01T17:55:43.196Z,10.37
2023-04-01T17:58:30.116Z,10.35
2023-04-01T18:01:00.590Z,10.38
2023-04-01T18:03:34.216Z,10.38
2023-04-01T18:06:09.944Z,10.31
2023-04-01T18:09:21.914Z,10.37
2023-04-01T18:12:14.106Z,10.36
2023-04-01T18:15:06.932Z,10.39
2023-04-01T18:17:49.784Z,10.34
2023-04-01T18:20:19.753Z,10.36
2023-04-01T18:22:55.778Z,10.35
2023-04-01T18:25:34.967Z,10.37
2023-04-01T18:28:28.961Z,10.34
2023-04-01T18:31:11.164Z,10.32
2023-04-01T18:33:48.993Z,10.30
2023-04-01T18:36:35.700Z,10.30
2023-04-01T18:39:35.214Z,10.32
2023-04-01T18:42:10.883Z,10.27
2023-04-01T18:45:17.224Z,10.30
2023-04-01T18:47:50.416Z,10.27
2023-04-01T18:50:45.529Z,10.23
2023-04-01T18:53:42.626Z,10.22
2023-04-01T18:56:32.840Z,10.31
2023-04-01T18:59:28.603Z,10.30
2023-04-01T19:02:05.136Z,10.22
2023-04-01T19:04:35.326Z,10.19
2023-04-01T19:07:40.356Z,10.23
2023-04-01T19:10:45.669Z,10.23
2023-04-01T19:13:15.794Z,10.24
2023-04-01T19:15:54.403Z,10.16
2023-04-01T19:18:33.640Z,10.16
2023-04-01T19:21:36.162Z,10.09
2023-04-01T19:24:15.269Z,10.07
2023-04-01T19:27:16.831Z,10.08
2023-04-01T19:30:03.782Z,10.10
2023-04-01T19:32:53.090Z,10.12
2023-04-01T19:35:43.551Z,10.07
2023-04-01T19:38:28.327Z,10.04
2023-04-01T19:41:16.505Z,10.07
2023-04-01T19:44:06.289Z,10.01
2023-04-01T19:46:47.960Z,9.94
2023-04-01T19:49:53.653Z,9.97
2023-04-01T19:52:34.865Z,9.96
2023-04-01T19:55:11.054Z,10.01
2023-04-01T19:57:51.777Z,9.96
2023-04-01T20:01:06.692Z,9.91
2023-04-01T20:03:57.515Z,9.93
2023-04-01T20:06:43.179Z,9.84
2023-04-01T20:09:27.438Z,9.94
2023-04-01T20:12:06.816Z,9.91
2023-04-01T20:14:57.532Z,9.95
2023-04-01T20:17:40.134Z,9.94
2023-04-01T20:20:10.466Z,9.93
2023-04-01T20:22:47.015Z,9.90
2023-04-01T20:25:32.370Z,9.86
2023-04-01T20:28:07.143Z,9.84
2023-04-01T20:30:48.608Z,9.88
2023-04-01T20:33:43.489Z,9.81
2023-04-01T20:36:32.422Z,9.79
2023-04-01T20:38:59.906Z,9.78
2023-04-01T20:41:42.504Z,9.86
2023-04-01T20:44:13.443Z,9.84
2023-04-01T20:46:49.420Z,9.95
2023-04-01T20:49:32.239Z,9.94
2023-04-01T20:52:14.554Z,9.97
2023-04-01T20:54:51.265Z,9.96
2023-04-01T20:57:29.008Z,9.98
2023-04-01T21:00:33.463Z,9.99
2023-04-01T21:03:20.773Z,9.98
2023-04-01T21:05:56.807Z,10.01
2023-04-01T21:08:50.781Z,10.04
2023-04-01T21:11:33.480Z,9.92
2023-04-01T21:14:12.855Z,9.98
2023-04-01T21:16:55.554Z,9.97
2023-04-01T21:19:43.757Z,10.05
2023-04-01T21:22:17.775Z,9.98
2023-04-01T21:25:17.314Z,10.08
2023-04-01T21:28:13.352Z,10.03
2023-04-01T21:30:59.617Z,10.09
2023-04-01T21:33:56.387Z,10.12
2023-04-01T21:36:32.448Z,10.16
2023-04-01T21:39:24.708Z,10.14
2023-04-01T21:42:13.829Z,10.09
2023-04-01T21:44:45.019Z,10.08
2023-04-01T21:47:40.951Z,10.06
2023-04-01T21:50:21.026Z,10.11
2023-04-01T21:53:03.278Z,10.10
2023-04-01T21:55:54.571Z,10.02
2023-04-01T21:58:32.078Z,10.00
2023-04-01T22:01:38.104Z,9.99
2023-04-01T22:04:25.699Z,10.00
2023-04-01T22:07:13.988Z,10.00
2023-04-01T22:09:50.137Z,9.99
2023-04-01T22:13:09.545Z,10.01
2023-04-01T22:16:10.818Z,9.95
2023-04-01T22:18:47.654Z,9.94
2023-04-01T22:21:25.408Z,9.97
2023-04-01T22:24:13.584Z,9.98
2023-04-01T22:27:14.400Z,9.98
2023-04-01T22:30:00.862Z,9.98
2023-04-01T22:32:40.289Z,9.97
2023-04-01T22:35:16.859Z,10.03
2023-04-01T22:38:08.901Z,10.01
2023-04-01T22:40:57.578Z,10.05
2023-04-01T22:43:44.917Z,10.01
2023-04-01T22:46:30.708Z,10.06
2023-04-01T22:49:04.120Z,10.09
2023-04-01T22:51:58.864Z,10.00
2023-04-01T22:54:39.287Z,9.99
2023-04-01T22:57:13.533Z,10.01
2023-04-01T22:59:54.527Z,10.04
2023-04-01T23:02:32.078Z,9.97
2023-04-01T23:05:03.308Z,10.02
2023-04-01T23:07:55.184Z,10.07
2023-04-01T23:10:31.574Z,10.04
2023-04-01T23:13:04.354Z,10.06
2023-04-01T23:15:35.952Z,10.08
2023-04-01T23:18:29.080Z,10.03
2023-04-01T23:20:56.202Z,10.07
2023-04-01T23:23:43.056Z,10.06
2023-04-01T23:26:36.109Z,10.12
2023-04-01T23:29:05.803Z,10.11
2023-04-01T23:31:48.845Z,10.10
2023-04-01T23:34:16.148Z,10.09
2023-04-01T23:36:47.450Z,10.12
2023-04-01T23:39:45.437Z,10.14
2023-04-01T23:42:25.107Z,10.17
2023-04-01T23:44:58.414Z,10.19
2023-04-01T23:47:31.925Z,10.15
2023-04-01T23:50:14.799Z,10.20
2023-04-01T23:52:48.006Z,10.19
2023-04-01T23:55:18.654Z,10.21
2023-04-01T23:58:04.224Z,10.22
